Terminal Aerodrome Forecast
Issued by NWS

Home | Current Version | Previous Version | Text Only | Print | Product List | Glossary On
Versions: 1 2 3 4 5 6 7 8 9 10 11 12 13 14 15 16 17 18 19 20 21 22
000
FTUS43 KLSX 270800 AAA
TAFUIN
TAF AMD
KUIN 270835Z 2709/2806 22008KT P6SM SCT025 BKN050
      TEMPO 2709/2711 BKN025
     FM271500 29010KT P6SM FEW040
     FM280100 VRB04KT P6SM SKC=

USA.gov is the U.S. government's official web portal to all federal, state and local government web resources and services.